Time;durP1;ratioP1;P1;durP2;ratioP2;P2;SDS_P1;SDS_P2;PMS_P1;PMS_P2;Temp;Humidity;BMP_temperature;BMP_pressure;BME280_temperature;BME280_humidity;BME280_pressure;Samples;Min_cycle;Max_cycle;Signal;HPM_P1;HPM_P2
2021/08/02 00:01:18;;;;;;;12.98;2.55;;;;;;;-145.71;100.00;60690.53;5017785;28;20075;-82
2021/08/02 00:04:06;;;;;;;9.43;1.73;;;;;;;-145.71;100.00;60690.53;5018939;28;20597;-82
2021/08/02 00:07:01;;;;;;;9.57;2.58;;;;;;;-145.71;100.00;60690.53;5017496;28;20120;-82
2021/08/02 00:09:36;;;;;;;6.90;2.28;;;;;;;-145.71;100.00;60690.53;4993809;28;20045;-82
2021/08/02 00:12:08;;;;;;;7.35;1.98;;;;;;;-145.71;100.00;60690.53;5000164;28;20546;-83
2021/08/02 00:14:34;;;;;;;10.05;2.30;;;;;;;-145.71;100.00;60690.53;5003145;28;20030;-83
2021/08/02 00:17:01;;;;;;;6.65;1.80;;;;;;;-145.71;100.00;60690.53;5002966;28;20806;-83
2021/08/02 00:19:26;;;;;;;11.57;2.42;;;;;;;-145.71;100.00;60690.53;5004260;28;20030;-83
2021/08/02 00:21:53;;;;;;;9.13;2.03;;;;;;;-145.71;100.00;60690.53;5001687;28;20044;-82
2021/08/02 00:24:20;;;;;;;6.15;2.28;;;;;;;-145.71;100.00;60690.53;5017374;28;20081;-83
2021/08/02 00:26:47;;;;;;;6.13;2.17;;;;;;;-145.71;100.00;60690.53;5017562;28;20437;-82
2021/08/02 00:29:13;;;;;;;9.75;2.20;;;;;;;-145.71;100.00;60690.53;5014487;28;20053;-82
2021/08/02 00:31:39;;;;;;;6.72;1.83;;;;;;;-145.71;100.00;60690.53;5018882;28;20037;-82
2021/08/02 00:34:04;;;;;;;9.43;2.70;;;;;;;-145.71;100.00;60690.53;5017755;28;20024;-83
2021/08/02 00:36:55;;;;;;;12.40;2.00;;;;;;;-145.71;100.00;60690.53;5016414;28;20086;-82
2021/08/02 00:39:34;;;;;;;13.30;2.07;;;;;;;-145.71;100.00;60690.53;5000628;28;20030;-82
2021/08/02 00:42:28;;;;;;;11.73;3.08;;;;;;;-145.71;100.00;60690.53;5018356;28;20035;-83
2021/08/02 00:44:56;;;;;;;11.07;2.63;;;;;;;-145.71;100.00;60690.53;5002636;28;20025;-83
2021/08/02 00:47:28;;;;;;;8.95;2.90;;;;;;;-145.71;100.00;60690.53;5018060;28;20405;-82
2021/08/02 00:49:56;;;;;;;12.38;2.97;;;;;;;-145.71;100.00;60690.53;5017481;28;20045;-82
2021/08/02 00:52:25;;;;;;;8.95;2.60;;;;;;;-145.71;100.00;60690.53;5013375;28;20370;-82
2021/08/02 00:54:51;;;;;;;11.35;2.85;;;;;;;-145.71;100.00;60690.53;5014370;28;20030;-82
2021/08/02 00:57:18;;;;;;;10.32;2.35;;;;;;;-145.71;100.00;60690.53;5015688;28;20022;-82
2021/08/02 00:59:44;;;;;;;8.32;2.63;;;;;;;-145.71;100.00;60690.53;5001534;28;20030;-83
2021/08/02 01:02:10;;;;;;;8.43;3.38;;;;;;;-145.71;100.00;60690.53;5020509;28;20034;-83
2021/08/02 01:04:37;;;;;;;9.90;2.88;;;;;;;-145.71;100.00;60690.53;5019536;28;20037;-83
2021/08/02 01:07:11;;;;;;;11.52;3.08;;;;;;;-145.71;100.00;60690.53;5000859;28;20029;-83
2021/08/02 01:09:42;;;;;;;8.18;2.45;;;;;;;-145.71;100.00;60690.53;5017562;28;20544;-84
2021/08/02 01:12:11;;;;;;;7.72;2.40;;;;;;;-145.71;100.00;60690.53;5016465;28;20030;-83
2021/08/02 01:14:37;;;;;;;8.07;2.35;;;;;;;-145.71;100.00;60690.53;5015280;28;20072;-83
2021/08/02 01:17:06;;;;;;;5.70;2.40;;;;;;;-145.71;100.00;60690.53;4996934;28;20753;-82
2021/08/02 01:19:32;;;;;;;14.48;2.72;;;;;;;-145.71;100.00;60690.53;4997954;28;20595;-82
2021/08/02 01:21:59;;;;;;;7.85;2.50;;;;;;;-145.71;100.00;60690.53;4996270;28;20057;-82
2021/08/02 01:24:25;;;;;;;9.73;2.53;;;;;;;-145.71;100.00;60690.53;5015406;28;20529;-83
2021/08/02 01:26:59;;;;;;;8.93;3.03;;;;;;;-145.71;100.00;60690.53;4997496;28;20034;-83
2021/08/02 01:30:02;;;;;;;10.07;2.92;;;;;;;-145.71;100.00;60690.53;4998778;28;20033;-83
2021/08/02 01:32:28;;;;;;;11.35;3.05;;;;;;;-145.71;100.00;60690.53;5000944;28;20030;-84
2021/08/02 01:34:54;;;;;;;10.20;2.58;;;;;;;-145.71;100.00;60690.53;5017882;28;20048;-83
2021/08/02 01:37:19;;;;;;;11.20;2.55;;;;;;;-145.71;100.00;60690.53;5017940;28;20026;-83
2021/08/02 01:39:52;;;;;;;6.82;2.08;;;;;;;-145.71;100.00;60690.53;5016636;28;20034;-83
2021/08/02 01:42:17;;;;;;;11.55;2.70;;;;;;;-145.71;100.00;60690.53;4998656;28;20036;-82
2021/08/02 01:44:42;;;;;;;8.00;2.45;;;;;;;-145.71;100.00;60690.53;5014175;28;20387;-82
2021/08/02 01:47:20;;;;;;;10.68;2.83;;;;;;;-145.71;100.00;60690.53;5014127;28;20430;-82
2021/08/02 01:49:54;;;;;;;11.85;3.03;;;;;;;-145.71;100.00;60690.53;4995551;28;20120;-82
2021/08/02 01:52:30;;;;;;;9.63;2.30;;;;;;;-145.71;100.00;60690.53;5013801;28;20029;-83
2021/08/02 01:55:02;;;;;;;9.63;2.92;;;;;;;-145.71;100.00;60690.53;5015677;28;20092;-82
2021/08/02 01:57:41;;;;;;;9.75;2.38;;;;;;;-145.71;100.00;60690.53;4998226;28;20104;-83
2021/08/02 02:00:14;;;;;;;14.68;2.53;;;;;;;-145.71;100.00;60690.53;5015170;28;20099;-83
2021/08/02 02:02:44;;;;;;;10.75;2.30;;;;;;;-145.71;100.00;60690.53;5017778;28;20036;-83
2021/08/02 02:05:15;;;;;;;9.02;2.20;;;;;;;-145.71;100.00;60690.53;5018833;28;20052;-83
2021/08/02 02:07:46;;;;;;;8.55;2.67;;;;;;;-145.71;100.00;60690.53;4996123;28;20544;-82
2021/08/02 02:10:14;;;;;;;9.70;2.67;;;;;;;-145.71;100.00;60690.53;5014752;28;20034;-82
2021/08/02 02:12:42;;;;;;;12.23;2.40;;;;;;;-145.71;100.00;60690.53;4996562;28;20030;-82
2021/08/02 02:15:09;;;;;;;12.40;3.08;;;;;;;-145.71;100.00;60690.53;4995649;28;20115;-82
2021/08/02 02:17:37;;;;;;;9.48;2.53;;;;;;;-145.71;100.00;60690.53;4996580;28;20060;-82
2021/08/02 02:20:04;;;;;;;10.85;3.22;;;;;;;-145.71;100.00;60690.53;5013490;28;20033;-82
2021/08/02 02:22:31;;;;;;;6.85;2.40;;;;;;;-145.71;100.00;60690.53;4995855;28;20058;-82
2021/08/02 02:24:57;;;;;;;11.20;2.65;;;;;;;-145.71;100.00;60690.53;5014651;28;20617;-82
2021/08/02 02:27:22;;;;;;;6.95;2.53;;;;;;;-145.71;100.00;60690.53;5014912;28;20029;-82
2021/08/02 02:29:49;;;;;;;9.55;2.70;;;;;;;-145.71;100.00;60690.53;5014062;28;20030;-82
2021/08/02 02:32:17;;;;;;;11.57;2.90;;;;;;;-145.71;100.00;60690.53;4996093;28;20026;-83
2021/08/02 02:34:46;;;;;;;16.63;2.70;;;;;;;-145.71;100.00;60690.53;5020278;28;20029;-83
2021/08/02 02:37:13;;;;;;;9.40;2.30;;;;;;;-145.71;100.00;60690.53;4999544;28;20026;-83
2021/08/02 02:39:39;;;;;;;7.70;2.30;;;;;;;-145.71;100.00;60690.53;5017633;28;20034;-83
2021/08/02 02:42:06;;;;;;;8.65;2.40;;;;;;;-145.71;100.00;60690.53;5015476;28;20029;-83
2021/08/02 02:44:31;;;;;;;13.25;2.72;;;;;;;-145.71;100.00;60690.53;4999013;28;20704;-83
2021/08/02 02:46:59;;;;;;;11.45;2.97;;;;;;;-145.71;100.00;60690.53;5015529;28;20022;-82
2021/08/02 02:49:26;;;;;;;6.80;2.88;;;;;;;-145.71;100.00;60690.53;5014433;28;20500;-82
2021/08/02 02:51:53;;;;;;;10.63;2.80;;;;;;;-145.71;100.00;60690.53;5016734;28;20541;-82
2021/08/02 02:54:21;;;;;;;11.52;3.17;;;;;;;-145.71;100.00;60690.53;5014839;28;20080;-82
2021/08/02 02:56:46;;;;;;;11.00;2.67;;;;;;;-145.71;100.00;60690.53;5014772;28;20058;-82
2021/08/02 02:59:11;;;;;;;12.90;3.20;;;;;;;-145.71;100.00;60690.53;4997728;28;20082;-82
2021/08/02 03:01:47;;;;;;;8.52;3.63;;;;;;;-145.71;100.00;60690.53;5019588;28;20026;-83
2021/08/02 03:04:14;;;;;;;10.07;3.17;;;;;;;-145.71;100.00;60690.53;5017759;28;20033;-83
2021/08/02 03:06:42;;;;;;;11.30;3.50;;;;;;;-145.71;100.00;60690.53;5016083;28;20820;-83
2021/08/02 03:09:09;;;;;;;11.65;3.50;;;;;;;-145.71;100.00;60690.53;4998390;28;20034;-84
2021/08/02 03:11:35;;;;;;;11.00;3.50;;;;;;;-145.71;100.00;60690.53;4997744;28;20120;-83
2021/08/02 03:14:01;;;;;;;13.32;3.08;;;;;;;-145.71;100.00;60690.53;5015898;28;20033;-83
2021/08/02 03:16:26;;;;;;;14.43;3.70;;;;;;;-145.71;100.00;60690.53;4995819;28;20093;-82
2021/08/02 03:18:52;;;;;;;9.25;2.70;;;;;;;-145.71;100.00;60690.53;5014661;28;20045;-83
2021/08/02 03:21:18;;;;;;;9.32;2.67;;;;;;;-145.71;100.00;60690.53;5013374;28;20030;-81
2021/08/02 03:23:56;;;;;;;8.48;2.90;;;;;;;-145.71;100.00;60690.53;4996485;28;20052;-83
2021/08/02 03:26:28;;;;;;;8.68;2.88;;;;;;;-145.71;100.00;60690.53;4998417;28;20033;-82
2021/08/02 03:28:55;;;;;;;;;;;;;;;-145.71;100.00;60690.53;4994347;28;20026;-81
2021/08/02 03:31:34;;;;;;;9.23;2.50;;;;;;;-145.71;100.00;60690.53;4998339;28;20384;-82
2021/08/02 03:34:01;;;;;;;11.00;3.13;;;;;;;-145.71;100.00;60690.53;5006386;28;20029;-83
2021/08/02 03:36:29;;;;;;;10.88;2.92;;;;;;;-145.71;100.00;60690.53;5023855;28;20553;-83
2021/08/02 03:38:55;;;;;;;9.93;2.90;;;;;;;-145.71;100.00;60690.53;5023717;28;20129;-83
2021/08/02 03:41:21;;;;;;;12.05;2.80;;;;;;;-145.71;100.00;60690.53;5023332;28;20029;-83
2021/08/02 03:43:48;;;;;;;10.32;2.90;;;;;;;-145.71;100.00;60690.53;5003737;28;20032;-83
2021/08/02 03:46:14;;;;;;;11.85;3.55;;;;;;;-145.71;100.00;60690.53;5021295;28;20029;-82
2021/08/02 03:48:40;;;;;;;13.57;2.50;;;;;;;-145.71;100.00;60690.53;5002636;28;20022;-83
2021/08/02 03:51:06;;;;;;;9.13;2.70;;;;;;;-145.71;100.00;60690.53;5001325;28;20362;-83
2021/08/02 03:53:45;;;;;;;11.73;3.10;;;;;;;-145.71;100.00;60690.53;5019986;28;20048;-82
2021/08/02 03:56:12;;;;;;;11.15;2.83;;;;;;;-145.71;100.00;60690.53;5019468;28;20500;-82
2021/08/02 03:58:37;;;;;;;9.70;3.15;;;;;;;-145.71;100.00;60690.53;5018699;28;20084;-83
2021/08/02 04:01:03;;;;;;;14.18;4.15;;;;;;;-145.71;100.00;60690.53;5018683;28;20485;-83
2021/08/02 04:03:28;;;;;;;7.85;2.53;;;;;;;-145.71;100.00;60690.53;5022114;28;20026;-84
2021/08/02 04:05:54;;;;;;;10.32;2.70;;;;;;;-145.71;100.00;60690.53;5007047;28;20053;-83
2021/08/02 04:08:20;;;;;;;14.38;2.97;;;;;;;-145.71;100.00;60690.53;5005327;28;20025;-83
2021/08/02 04:10:46;;;;;;;12.35;3.05;;;;;;;-145.71;100.00;60690.53;5021757;28;20055;-83
2021/08/02 04:13:11;;;;;;;13.60;3.25;;;;;;;-145.71;100.00;60690.53;5004170;28;20022;-82
2021/08/02 04:15:37;;;;;;;16.30;2.90;;;;;;;-145.71;100.00;60690.53;5020814;28;20139;-83
2021/08/02 04:18:03;;;;;;;9.63;3.10;;;;;;;-145.71;100.00;60690.53;5020420;28;20029;-83
2021/08/02 04:20:29;;;;;;;11.38;2.47;;;;;;;-145.71;100.00;60690.53;5019488;28;20053;-82
2021/08/02 04:22:54;;;;;;;12.00;2.75;;;;;;;-145.71;100.00;60690.53;5000479;28;20461;-82
2021/08/02 04:25:19;;;;;;;15.82;3.67;;;;;;;-145.71;100.00;60690.53;5019509;28;20038;-82
2021/08/02 04:27:45;;;;;;;14.20;2.53;;;;;;;-145.71;100.00;60690.53;5019136;28;20164;-82
2021/08/02 04:30:11;;;;;;;11.70;2.60;;;;;;;-145.71;100.00;60690.53;5018894;28;20033;-83
2021/08/02 04:32:41;;;;;;;11.00;3.08;;;;;;;-145.71;100.00;60690.53;5000984;28;20034;-83
2021/08/02 04:35:07;;;;;;;16.40;3.20;;;;;;;-145.71;100.00;60690.53;5002688;28;20029;-83
2021/08/02 04:37:32;;;;;;;13.90;2.83;;;;;;;-145.71;100.00;60690.53;5024415;28;20045;-83
2021/08/02 04:39:58;;;;;;;12.85;2.83;;;;;;;-145.71;100.00;60690.53;5023513;28;20060;-82
2021/08/02 04:42:23;;;;;;;12.68;2.50;;;;;;;-145.71;100.00;60690.53;5019475;28;20065;-83
2021/08/02 04:44:49;;;;;;;9.20;2.63;;;;;;;-145.71;100.00;60690.53;5017335;28;20033;-82
2021/08/02 04:47:14;;;;;;;14.45;2.72;;;;;;;-145.71;100.00;60690.53;5019494;28;20029;-82
2021/08/02 04:49:39;;;;;;;14.48;2.70;;;;;;;-145.71;100.00;60690.53;4997449;28;20107;-82
2021/08/02 04:52:05;;;;;;;7.03;2.55;;;;;;;-145.71;100.00;60690.53;5014967;28;20036;-84
2021/08/02 04:54:30;;;;;;;14.02;2.78;;;;;;;-145.71;100.00;60690.53;4997723;28;20478;-82
2021/08/02 04:56:55;;;;;;;9.73;2.58;;;;;;;-145.71;100.00;60690.53;5014939;28;20080;-82
2021/08/02 04:59:21;;;;;;;11.20;2.58;;;;;;;-145.71;100.00;60690.53;4997151;28;20393;-82
2021/08/02 05:01:46;;;;;;;14.15;3.10;;;;;;;-145.71;100.00;60690.53;4997625;28;20068;-82
2021/08/02 05:04:11;;;;;;;9.70;2.47;;;;;;;-145.71;100.00;60690.53;5014706;28;20053;-82
2021/08/02 05:06:36;;;;;;;12.32;2.67;;;;;;;-145.71;100.00;60690.53;4997432;28;20049;-82
2021/08/02 05:09:02;;;;;;;12.95;2.80;;;;;;;-145.71;100.00;60690.53;5000432;28;20025;-83
2021/08/02 05:11:27;;;;;;;10.70;3.33;;;;;;;-145.71;100.00;60690.53;5019602;28;20428;-83
2021/08/02 05:13:52;;;;;;;9.38;2.33;;;;;;;-145.71;100.00;60690.53;5019023;28;20723;-82
2021/08/02 05:16:18;;;;;;;16.38;3.42;;;;;;;-145.71;100.00;60690.53;5016671;28;20041;-82
2021/08/02 05:18:43;;;;;;;17.17;2.80;;;;;;;-145.71;100.00;60690.53;5016778;28;20033;-83
2021/08/02 05:21:08;;;;;;;16.05;3.83;;;;;;;-145.71;100.00;60690.53;4997434;28;20025;-83
2021/08/02 05:23:34;;;;;;;14.05;2.58;;;;;;;-145.71;100.00;60690.53;5014384;28;20060;-82
2021/08/02 05:26:00;;;;;;;14.07;3.03;;;;;;;-145.71;100.00;60690.53;4997051;28;20675;-83
2021/08/02 05:28:26;;;;;;;14.48;3.05;;;;;;;-145.71;100.00;60690.53;5015423;28;20104;-82
2021/08/02 05:30:51;;;;;;;16.73;3.70;;;;;;;-145.71;100.00;60690.53;5014649;28;20048;-82
2021/08/02 05:33:17;;;;;;;14.00;3.33;;;;;;;-145.71;100.00;60690.53;4998640;28;20030;-83
2021/08/02 05:35:42;;;;;;;10.70;2.45;;;;;;;-145.71;100.00;60690.53;4998692;28;20033;-82
2021/08/02 05:38:08;;;;;;;19.60;3.30;;;;;;;-145.71;100.00;60690.53;5015077;28;20137;-82
2021/08/02 05:40:33;;;;;;;17.02;4.40;;;;;;;-145.71;100.00;60690.53;4998032;28;20150;-83
2021/08/02 05:42:59;;;;;;;16.45;3.90;;;;;;;-145.71;100.00;60690.53;5006639;28;20014;-83
2021/08/02 05:45:24;;;;;;;10.65;3.08;;;;;;;-145.71;100.00;60690.53;5016708;28;20033;-82
2021/08/02 05:47:52;;;;;;;11.25;3.25;;;;;;;-145.71;100.00;60690.53;5014716;28;20033;-82
2021/08/02 05:50:18;;;;;;;17.83;4.03;;;;;;;-145.71;100.00;60690.53;4996880;28;20030;-83
2021/08/02 05:52:44;;;;;;;12.88;3.03;;;;;;;-145.71;100.00;60690.53;4996813;28;20033;-83
2021/08/02 05:55:10;;;;;;;15.55;3.25;;;;;;;-145.71;100.00;60690.53;5018056;28;20037;-83
2021/08/02 05:57:35;;;;;;;9.00;2.50;;;;;;;-145.71;100.00;60690.53;5015587;28;20085;-82
2021/08/02 06:00:01;;;;;;;11.07;3.20;;;;;;;-145.71;100.00;60690.53;5000521;28;20045;-83
2021/08/02 06:02:26;;;;;;;13.82;2.92;;;;;;;-145.71;100.00;60690.53;5000383;28;20425;-83
2021/08/02 06:04:51;;;;;;;10.65;2.78;;;;;;;-145.71;100.00;60690.53;5001312;28;20036;-82
2021/08/02 06:07:17;;;;;;;11.75;2.60;;;;;;;-145.71;100.00;60690.53;4984485;28;20492;-82
2021/08/02 06:09:42;;;;;;;13.52;3.08;;;;;;;-145.71;100.00;60690.53;5013770;28;20072;-81
2021/08/02 06:12:09;;;;;;;9.75;3.05;;;;;;;-145.71;100.00;60690.53;5014815;28;20085;-83
2021/08/02 06:14:35;;;;;;;12.15;2.80;;;;;;;-145.71;100.00;60690.53;5001419;28;20116;-82
2021/08/02 06:17:00;;;;;;;11.50;3.22;;;;;;;-145.71;100.00;60690.53;5016835;28;20053;-82
2021/08/02 06:19:26;;;;;;;13.13;3.03;;;;;;;-145.71;100.00;60690.53;4998525;28;20036;-83
2021/08/02 06:21:51;;;;;;;15.15;3.35;;;;;;;-145.71;100.00;60690.53;5019157;28;20456;-83
2021/08/02 06:24:16;;;;;;;13.85;3.70;;;;;;;-145.71;100.00;60690.53;5018687;28;20537;-82
2021/08/02 06:26:42;;;;;;;14.07;2.88;;;;;;;-145.71;100.00;60690.53;5015022;28;20038;-82
2021/08/02 06:29:07;;;;;;;12.10;2.65;;;;;;;-145.71;100.00;60690.53;5016808;28;20046;-84
2021/08/02 06:31:32;;;;;;;15.57;3.25;;;;;;;-145.71;100.00;60690.53;5014664;28;20061;-83
2021/08/02 06:33:58;;;;;;;6.57;2.30;;;;;;;-145.71;100.00;60690.53;4993312;28;20053;-83
2021/08/02 06:36:23;;;;;;;11.80;3.38;;;;;;;-145.71;100.00;60690.53;4995409;28;20132;-82
2021/08/02 06:38:49;;;;;;;8.50;2.17;;;;;;;-145.71;100.00;60690.53;5012714;28;20033;-83
2021/08/02 06:41:15;;;;;;;13.68;3.17;;;;;;;-145.71;100.00;60690.53;5013960;28;20389;-83
2021/08/02 06:43:41;;;;;;;11.93;3.00;;;;;;;-145.71;100.00;60690.53;4998036;28;20037;-83
2021/08/02 06:46:07;;;;;;;8.20;2.60;;;;;;;-145.71;100.00;60690.53;4994357;28;20073;-82
2021/08/02 06:48:34;;;;;;;6.78;2.20;;;;;;;-145.71;100.00;60690.53;5010487;28;20425;-83
2021/08/02 06:50:59;;;;;;;5.50;2.08;;;;;;;-145.71;100.00;60690.53;4994015;28;20057;-82
2021/08/02 06:53:24;;;;;;;8.13;2.10;;;;;;;-145.71;100.00;60690.53;5013940;28;20026;-84
2021/08/02 06:55:50;;;;;;;6.80;1.98;;;;;;;-145.71;100.00;60690.53;4999014;28;20124;-84
2021/08/02 06:58:16;;;;;;;7.50;1.90;;;;;;;-145.71;100.00;60690.53;5015083;28;20029;-83
2021/08/02 07:00:42;;;;;;;5.05;1.80;;;;;;;-145.71;100.00;60690.53;4992597;28;20029;-83
2021/08/02 07:03:07;;;;;;;8.60;2.03;;;;;;;-145.71;100.00;60690.53;5012201;28;20036;-83
2021/08/02 07:05:32;;;;;;;9.90;2.55;;;;;;;-145.71;100.00;60690.53;5014563;28;20033;-83
2021/08/02 07:07:59;;;;;;;12.75;2.15;;;;;;;-145.71;100.00;60690.53;4998049;28;20049;-83
2021/08/02 07:10:25;;;;;;;6.03;2.70;;;;;;;-145.71;100.00;60690.53;5015237;28;20100;-83
2021/08/02 07:12:50;;;;;;;7.22;1.92;;;;;;;-145.71;100.00;60690.53;4995960;28;20180;-82
2021/08/02 07:15:15;;;;;;;8.55;2.53;;;;;;;-145.71;100.00;60690.53;5016022;28;20076;-83
2021/08/02 07:17:41;;;;;;;12.48;2.88;;;;;;;-145.71;100.00;60690.53;4997208;28;20022;-83
2021/08/02 07:20:07;;;;;;;10.23;2.28;;;;;;;-145.71;100.00;60690.53;5015507;28;20112;-83
2021/08/02 07:22:32;;;;;;;9.40;3.22;;;;;;;-145.71;100.00;60690.53;5013932;28;20489;-83
2021/08/02 07:24:57;;;;;;;10.15;2.20;;;;;;;-145.71;100.00;60690.53;4998303;28;20485;-84
2021/08/02 07:27:23;;;;;;;7.30;1.98;;;;;;;-145.71;100.00;60690.53;5016463;28;20034;-82
2021/08/02 07:29:48;;;;;;;3.78;1.63;;;;;;;-145.71;100.00;60690.53;4996155;28;20025;-83
2021/08/02 07:32:13;;;;;;;9.77;2.00;;;;;;;-145.71;100.00;60690.53;5001560;28;20026;-84
2021/08/02 07:34:39;;;;;;;8.32;1.55;;;;;;;-145.71;100.00;60690.53;5018292;28;20053;-80
2021/08/02 07:37:04;;;;;;;8.07;1.88;;;;;;;-145.71;100.00;60690.53;5017850;28;20026;-81
2021/08/02 07:39:30;;;;;;;6.40;1.85;;;;;;;-145.71;100.00;60690.53;5018168;28;20038;-82
2021/08/02 07:41:56;;;;;;;7.53;1.70;;;;;;;-145.71;100.00;60690.53;5016377;28;20037;-82
2021/08/02 07:44:22;;;;;;;6.70;1.70;;;;;;;-145.71;100.00;60690.53;5017691;28;20026;-82
2021/08/02 07:46:47;;;;;;;8.77;1.90;;;;;;;-145.71;100.00;60690.53;5018894;28;20037;-82
2021/08/02 07:49:13;;;;;;;6.75;1.48;;;;;;;-145.71;100.00;60690.53;5016873;28;20061;-84
2021/08/02 07:51:38;;;;;;;6.20;2.20;;;;;;;-145.71;100.00;60690.53;5014690;28;20522;-84
2021/08/02 07:54:03;;;;;;;8.90;2.00;;;;;;;-145.71;100.00;60690.53;4995676;28;20033;-83
2021/08/02 07:56:29;;;;;;;13.70;2.60;;;;;;;-145.71;100.00;60690.53;4995151;28;20030;-83
2021/08/02 07:58:56;;;;;;;8.90;2.03;;;;;;;-145.71;100.00;60690.53;5011755;28;20030;-83
2021/08/02 08:01:21;;;;;;;18.33;3.45;;;;;;;-145.71;100.00;60690.53;4994368;28;20448;-83
2021/08/02 08:03:46;;;;;;;7.65;2.17;;;;;;;-145.71;100.00;60690.53;5011346;28;20033;-82
2021/08/02 08:06:12;;;;;;;9.40;2.22;;;;;;;-145.71;100.00;60690.53;5012740;28;20037;-84
2021/08/02 08:08:37;;;;;;;9.93;2.40;;;;;;;-145.71;100.00;60690.53;4997090;28;20022;-83
2021/08/02 08:11:03;;;;;;;11.98;2.53;;;;;;;-145.71;100.00;60690.53;5014562;28;20033;-83
2021/08/02 08:13:28;;;;;;;13.32;2.50;;;;;;;-145.71;100.00;60690.53;5014224;28;20470;-83
2021/08/02 08:15:53;;;;;;;11.52;2.70;;;;;;;-145.71;100.00;60690.53;4994862;28;20033;-83
2021/08/02 08:18:19;;;;;;;11.57;2.90;;;;;;;-145.71;100.00;60690.53;4996455;28;20029;-83
2021/08/02 08:20:44;;;;;;;13.90;2.72;;;;;;;-145.71;100.00;60690.53;4996971;28;20040;-83
2021/08/02 08:23:09;;;;;;;14.68;3.85;;;;;;;-145.71;100.00;60690.53;4996293;28;20050;-82
2021/08/02 08:25:35;;;;;;;9.07;2.70;;;;;;;-145.71;100.00;60690.53;5015050;28;20030;-83
2021/08/02 08:28:01;;;;;;;10.57;2.58;;;;;;;-145.71;100.00;60690.53;5018050;28;20033;-84
2021/08/02 08:30:27;;;;;;;11.13;3.25;;;;;;;-145.71;100.00;60690.53;5017018;28;20053;-83
2021/08/02 08:32:52;;;;;;;12.70;3.13;;;;;;;-145.71;100.00;60690.53;4999725;28;20767;-83
2021/08/02 08:35:18;;;;;;;17.33;2.95;;;;;;;-145.71;100.00;60690.53;5016145;28;20121;-83
2021/08/02 08:37:43;;;;;;;16.02;4.85;;;;;;;-145.71;100.00;60690.53;5015353;28;20030;-83
2021/08/02 08:40:10;;;;;;;12.13;2.92;;;;;;;-145.71;100.00;60690.53;5014520;28;20064;-83
2021/08/02 08:42:35;;;;;;;11.48;2.67;;;;;;;-145.71;100.00;60690.53;4996448;28;20026;-83
2021/08/02 08:45:01;;;;;;;13.40;3.33;;;;;;;-145.71;100.00;60690.53;4996726;28;20151;-83
2021/08/02 08:47:26;;;;;;;10.63;2.47;;;;;;;-145.71;100.00;60690.53;5014876;28;20061;-83
2021/08/02 08:49:51;;;;;;;12.60;2.92;;;;;;;-145.71;100.00;60690.53;5016555;28;20057;-83
2021/08/02 08:52:17;;;;;;;11.73;2.75;;;;;;;-145.71;100.00;60690.53;5017728;28;20042;-83
2021/08/02 08:54:43;;;;;;;9.45;2.72;;;;;;;-145.71;100.00;60690.53;5017267;28;20030;-83
2021/08/02 08:57:11;;;;;;;11.32;2.38;;;;;;;-145.71;100.00;60690.53;5015763;28;20041;-83
2021/08/02 08:59:56;;;;;;;11.30;2.25;;;;;;;-145.71;100.00;60690.53;4997123;28;20029;-83
2021/08/02 09:02:26;;;;;;;13.55;2.33;;;;;;;-145.71;100.00;60690.53;5013547;28;20404;-82
2021/08/02 09:04:59;;;;;;;10.10;2.10;;;;;;;-145.71;100.00;60690.53;5015261;28;20033;-84
2021/08/02 09:07:39;;;;;;;7.30;1.95;;;;;;;-145.71;100.00;60690.53;4997236;28;20034;-83
2021/08/02 09:10:08;;;;;;;11.85;2.78;;;;;;;-145.71;100.00;60690.53;5015337;28;20104;-83
2021/08/02 09:12:34;;;;;;;12.30;2.53;;;;;;;-145.71;100.00;60690.53;5017014;28;20056;-84
2021/08/02 09:15:05;;;;;;;9.40;2.03;;;;;;;-145.71;100.00;60690.53;5016880;28;20129;-83
2021/08/02 09:17:35;;;;;;;17.25;3.40;;;;;;;-145.71;100.00;60690.53;4998440;28;20129;-83
2021/08/02 09:20:06;;;;;;;13.90;2.93;;;;;;;-145.71;100.00;60690.53;5014691;28;20034;-83
2021/08/02 09:22:34;;;;;;;9.02;2.33;;;;;;;-145.71;100.00;60690.53;4996952;28;20057;-83
2021/08/02 09:25:13;;;;;;;12.02;2.95;;;;;;;-145.71;100.00;60690.53;5014010;28;20029;-83
2021/08/02 09:27:40;;;;;;;10.27;3.08;;;;;;;-145.71;100.00;60690.53;4996891;28;20018;-83
2021/08/02 09:30:15;;;;;;;17.48;2.53;;;;;;;-145.71;100.00;60690.53;5013440;28;20030;-83
2021/08/02 09:32:54;;;;;;;15.75;2.60;;;;;;;-145.71;100.00;60690.53;4999683;28;20052;-83
2021/08/02 09:35:40;;;;;;;19.95;3.25;;;;;;;-145.71;100.00;60690.53;4998537;28;20025;-83
2021/08/02 09:38:09;;;;;;;16.10;3.03;;;;;;;-145.71;100.00;60690.53;5014213;28;20030;-83
2021/08/02 09:40:48;;;;;;;9.15;2.80;;;;;;;-145.71;100.00;60690.53;5013632;28;20057;-83
2021/08/02 09:43:25;;;;;;;16.90;3.58;;;;;;;-145.71;100.00;60690.53;5015131;28;20400;-82
2021/08/02 09:45:57;;;;;;;10.60;2.80;;;;;;;-145.71;100.00;60690.53;5014383;28;20409;-83
2021/08/02 09:48:42;;;;;;;14.07;3.72;;;;;;;-145.71;100.00;60690.53;5014663;28;20036;-83
2021/08/02 09:51:11;;;;;;;27.05;3.92;;;;;;;-145.71;100.00;60690.53;5015925;28;20053;-83
2021/08/02 09:53:49;;;;;;;25.30;5.43;;;;;;;-145.71;100.00;60690.53;4995882;28;20026;-83
2021/08/02 09:56:22;;;;;;;22.85;5.50;;;;;;;-145.71;100.00;60690.53;5013110;28;20034;-83
2021/08/02 09:58:48;;;;;;;25.23;4.38;;;;;;;-145.71;100.00;60690.53;5014763;28;20033;-83
2021/08/02 10:01:16;;;;;;;16.75;4.20;;;;;;;-145.71;100.00;60690.53;5014646;28;20060;-83
2021/08/02 10:03:42;;;;;;;15.98;4.55;;;;;;;-145.71;100.00;60690.53;5013628;28;20056;-83
2021/08/02 10:06:11;;;;;;;15.40;3.78;;;;;;;-145.71;100.00;60690.53;5012878;28;20370;-83
2021/08/02 10:08:37;;;;;;;18.10;4.43;;;;;;;-145.71;100.00;60690.53;4994661;28;20026;-83
2021/08/02 10:11:04;;;;;;;19.40;4.40;;;;;;;-145.71;100.00;60690.53;4994773;28;20495;-83
2021/08/02 10:13:32;;;;;;;18.23;4.82;;;;;;;-145.71;100.00;60690.53;5014667;28;20040;-84
2021/08/02 10:16:00;;;;;;;16.75;4.22;;;;;;;-145.71;100.00;60690.53;5015610;28;20034;-84
2021/08/02 10:18:28;;;;;;;24.20;5.45;;;;;;;-145.71;100.00;60690.53;4997015;28;20550;-83
2021/08/02 10:21:08;;;;;;;19.00;4.32;;;;;;;-145.71;100.00;60690.53;4996326;28;20032;-84
2021/08/02 10:23:34;;;;;;;20.70;4.17;;;;;;;-145.71;100.00;60690.53;4992283;28;20058;-83
2021/08/02 10:26:00;;;;;;;15.48;3.58;;;;;;;-145.71;100.00;60690.53;4992012;28;20750;-83
2021/08/02 10:28:26;;;;;;;19.52;4.00;;;;;;;-145.71;100.00;60690.53;4991372;28;20033;-83
2021/08/02 10:31:06;;;;;;;11.20;3.28;;;;;;;-145.71;100.00;60690.53;4991802;28;20038;-83
2021/08/02 10:33:39;;;;;;;13.88;3.60;;;;;;;-145.71;100.00;60690.53;4994319;28;20035;-83
2021/08/02 10:36:19;;;;;;;15.45;3.33;;;;;;;-145.71;100.00;60690.53;4996164;28;20026;-83
2021/08/02 10:38:53;;;;;;;20.38;4.15;;;;;;;-145.71;100.00;60690.53;4993862;28;20501;-83
2021/08/02 10:41:29;;;;;;;17.95;4.00;;;;;;;-145.71;100.00;60690.53;4993344;28;20030;-83
2021/08/02 10:43:56;;;;;;;19.95;4.03;;;;;;;-145.71;100.00;60690.53;4993253;28;20390;-83
2021/08/02 10:46:26;;;;;;;14.43;3.53;;;;;;;-145.71;100.00;60690.53;4992369;28;20034;-83
2021/08/02 10:49:08;;;;;;;12.98;3.30;;;;;;;-145.71;100.00;60690.53;4993181;28;20033;-83
2021/08/02 10:51:55;;;;;;;14.23;4.00;;;;;;;-145.71;100.00;60690.53;4992748;28;20041;-83
2021/08/02 10:54:21;;;;;;;23.38;4.65;;;;;;;-145.71;100.00;60690.53;4993135;28;20030;-83
2021/08/02 10:56:50;;;;;;;17.25;3.47;;;;;;;-145.71;100.00;60690.53;4994552;28;20030;-84
2021/08/02 10:59:21;;;;;;;21.33;4.05;;;;;;;-145.71;100.00;60690.53;4995568;28;20092;-83
2021/08/02 11:01:49;;;;;;;11.00;3.00;;;;;;;-145.71;100.00;60690.53;4993269;28;20026;-83
2021/08/02 11:04:17;;;;;;;10.90;3.38;;;;;;;-145.71;100.00;60690.53;4992124;28;20112;-83
2021/08/02 11:06:47;;;;;;;12.90;4.20;;;;;;;-145.71;100.00;60690.53;4992252;28;20389;-84
2021/08/02 11:09:13;;;;;;;13.40;3.72;;;;;;;-145.71;100.00;60690.53;4993771;28;20037;-83